createdAt,value
2018-11-07T00:02:00.123Z,23.90
2018-11-07T00:04:25.257Z,25.37
2018-11-07T00:06:50.365Z,27.17
2018-11-07T00:09:15.453Z,26.33
2018-11-07T00:11:40.627Z,26.77
2018-11-07T00:14:05.890Z,26.77
2018-11-07T00:16:30.924Z,25.23
2018-11-07T00:18:56.078Z,23.23
2018-11-07T00:21:21.174Z,22.90
2018-11-07T00:26:41.346Z,20.60
2018-11-07T00:29:06.572Z,20.67
2018-11-07T00:31:31.677Z,23.77
2018-11-07T00:33:56.791Z,24.43
2018-11-07T00:36:21.898Z,23.70
2018-11-07T00:38:47.088Z,24.57
2018-11-07T00:41:12.187Z,24.07
2018-11-07T00:43:37.318Z,23.27
2018-11-07T00:46:02.414Z,25.63
2018-11-07T00:48:27.510Z,24.50
2018-11-07T00:50:52.661Z,26.30
2018-11-07T00:53:17.761Z,25.70
2018-11-07T00:55:42.953Z,24.97
2018-11-07T00:58:08.153Z,25.70
2018-11-07T01:00:33.190Z,24.60
2018-11-07T01:03:09.828Z,26.13
2018-11-07T01:05:34.953Z,24.97
2018-11-07T01:08:00.064Z,25.00
2018-11-07T01:10:25.137Z,26.03
2018-11-07T01:12:50.236Z,25.83
2018-11-07T01:15:15.467Z,25.63
2018-11-07T01:17:59.537Z,25.10
2018-11-07T01:20:24.636Z,24.40
2018-11-07T01:22:49.763Z,24.90
2018-11-07T01:25:14.954Z,23.63
2018-11-07T01:27:40.041Z,23.23
2018-11-07T01:30:05.710Z,24.67
2018-11-07T01:32:30.805Z,24.00
2018-11-07T01:34:55.927Z,25.07
2018-11-07T01:37:21.026Z,25.87
2018-11-07T01:39:46.145Z,25.90
2018-11-07T01:42:11.416Z,26.87
2018-11-07T01:44:36.452Z,25.90
2018-11-07T01:47:01.574Z,25.37
2018-11-07T01:49:26.713Z,25.50
2018-11-07T01:51:51.871Z,25.30
2018-11-07T01:54:35.971Z,24.07
2018-11-07T01:57:01.070Z,24.57
2018-11-07T01:59:26.212Z,25.83
2018-11-07T02:01:51.319Z,25.30
2018-11-07T02:04:16.437Z,25.30
2018-11-07T02:06:41.571Z,26.37
2018-11-07T02:09:09.306Z,27.80
2018-11-07T02:11:34.402Z,26.60
2018-11-07T02:13:59.541Z,24.40
2018-11-07T02:16:24.679Z,25.57
2018-11-07T02:18:49.794Z,25.13
2018-11-07T02:21:14.884Z,22.83
2018-11-07T02:23:40.031Z,20.57
2018-11-07T02:26:05.169Z,21.10
2018-11-07T02:28:30.314Z,22.27
2018-11-07T02:30:55.416Z,19.97
2018-11-07T02:33:20.521Z,19.80
2018-11-07T02:35:45.604Z,20.00
2018-11-07T02:43:42.772Z,15.07
2018-11-07T02:46:08.596Z,18.13
2018-11-07T02:48:33.688Z,18.33
2018-11-07T02:50:58.787Z,18.57
2018-11-07T02:53:23.934Z,20.93
2018-11-07T02:55:48.992Z,22.30
2018-11-07T02:58:14.118Z,23.60
2018-11-07T03:00:39.201Z,23.30
2018-11-07T03:03:23.325Z,22.40
2018-11-07T03:05:48.497Z,23.50
2018-11-07T03:08:13.804Z,23.80
2018-11-07T03:10:38.946Z,24.33
2018-11-07T03:13:03.996Z,24.03
2018-11-07T03:15:29.105Z,23.93
2018-11-07T03:17:54.169Z,24.10
2018-11-07T03:20:19.275Z,24.23
2018-11-07T03:22:44.367Z,24.47
2018-11-07T03:25:09.483Z,24.20
2018-11-07T03:27:34.685Z,23.40
2018-11-07T03:32:36.694Z,23.90
2018-11-07T03:35:01.786Z,24.97
2018-11-07T03:37:26.867Z,26.17
2018-11-07T03:39:52.168Z,26.40
2018-11-07T03:42:17.068Z,27.27
2018-11-07T03:44:42.213Z,27.37
2018-11-07T03:47:07.443Z,28.33
2018-11-07T03:49:32.512Z,29.07
2018-11-07T03:51:57.584Z,31.13
2018-11-07T03:56:59.702Z,29.40
2018-11-07T03:59:24.782Z,28.60
2018-11-07T04:01:49.962Z,29.40
2018-11-07T04:04:15.008Z,29.63
2018-11-07T04:06:40.183Z,31.10
2018-11-07T04:09:07.648Z,32.17
2018-11-07T04:11:51.749Z,30.33
2018-11-07T04:14:16.920Z,29.90
2018-11-07T04:16:42.048Z,27.73
2018-11-07T04:19:07.763Z,23.33
2018-11-07T04:21:32.887Z,23.47
2018-11-07T04:24:16.935Z,23.27
2018-11-07T04:27:00.999Z,21.53
2018-11-07T04:29:26.100Z,22.37
2018-11-07T04:31:51.180Z,23.03
2018-11-07T04:34:35.270Z,21.73
2018-11-07T04:37:00.422Z,21.47
2018-11-07T04:39:25.675Z,26.27
2018-11-07T04:41:50.779Z,23.80
2018-11-07T04:44:15.948Z,24.27
2018-11-07T04:46:41.049Z,23.67
2018-11-07T04:49:06.305Z,23.47
2018-11-07T04:51:31.390Z,23.33
2018-11-07T04:53:56.480Z,22.67
2018-11-07T04:56:21.622Z,23.03
2018-11-07T04:58:46.695Z,22.13
2018-11-07T05:01:11.769Z,21.40
2018-11-07T05:03:37.177Z,20.93
2018-11-07T05:06:02.260Z,19.83
2018-11-07T05:08:27.439Z,19.23
2018-11-07T05:10:52.548Z,18.70
2018-11-07T05:13:17.647Z,18.90
2018-11-07T05:15:42.754Z,17.53
2018-11-07T05:18:07.837Z,17.73
2018-11-07T05:20:32.957Z,17.07
2018-11-07T05:22:58.087Z,16.93
2018-11-07T05:33:12.110Z,18.30
2018-11-07T05:35:37.271Z,18.17
2018-11-07T05:38:02.379Z,18.93
2018-11-07T05:40:27.532Z,19.60
2018-11-07T05:42:52.697Z,19.37
2018-11-07T05:45:17.828Z,19.20
2018-11-07T05:47:42.933Z,18.33
2018-11-07T05:50:09.220Z,18.83
2018-11-07T05:52:34.349Z,18.33
2018-11-07T05:55:07.762Z,16.57
2018-11-07T05:57:32.919Z,16.13
2018-11-07T05:59:57.986Z,16.40
2018-11-07T06:02:23.157Z,16.33
2018-11-07T06:04:48.225Z,16.20
2018-11-07T06:07:13.314Z,16.77
2018-11-07T06:09:38.445Z,16.37
2018-11-07T06:12:03.547Z,16.47
2018-11-07T06:14:28.692Z,18.27
2018-11-07T06:16:53.775Z,17.47
2018-11-07T06:19:18.831Z,18.20
2018-11-07T06:21:43.973Z,18.97
2018-11-07T06:24:09.110Z,18.77
2018-11-07T06:26:34.253Z,17.77
2018-11-07T06:28:59.328Z,18.47
2018-11-07T06:31:24.417Z,19.07
2018-11-07T06:33:49.554Z,20.47
2018-11-07T06:36:14.608Z,20.57
2018-11-07T06:38:39.741Z,20.90
2018-11-07T06:41:04.824Z,21.20
2018-11-07T06:46:08.970Z,20.47
2018-11-07T06:48:34.084Z,23.00
2018-11-07T06:50:59.239Z,25.13
2018-11-07T06:56:02.796Z,24.97
2018-11-07T06:58:28.866Z,23.03
2018-11-07T07:00:53.939Z,26.37
2018-11-07T07:03:19.018Z,23.27
2018-11-07T07:05:44.113Z,25.03
2018-11-07T07:08:09.215Z,22.63
2018-11-07T07:10:34.296Z,23.93
2018-11-07T07:12:59.392Z,24.20
2018-11-07T07:15:24.507Z,24.37
2018-11-07T07:17:49.609Z,24.30
2018-11-07T07:22:54.263Z,24.87
2018-11-07T07:25:19.379Z,25.57
2018-11-07T07:27:45.377Z,24.33
2018-11-07T07:30:13.237Z,24.07
2018-11-07T07:32:57.284Z,24.33
2018-11-07T07:35:22.306Z,24.20
2018-11-07T07:37:47.440Z,23.97
2018-11-07T07:40:31.534Z,28.50
2018-11-07T07:42:56.653Z,26.53
2018-11-07T07:45:21.819Z,25.10
2018-11-07T07:47:47.134Z,24.03
2018-11-07T07:50:30.962Z,24.53
2018-11-07T07:52:56.127Z,25.47
2018-11-07T07:55:21.210Z,23.10
2018-11-07T07:57:46.256Z,22.17
2018-11-07T08:00:21.920Z,22.83
2018-11-07T08:02:48.146Z,26.00
2018-11-07T08:05:13.339Z,25.47
2018-11-07T08:07:38.551Z,27.43
2018-11-07T08:10:03.669Z,27.00
2018-11-07T08:12:28.787Z,25.57
2018-11-07T08:14:53.898Z,25.97
2018-11-07T08:17:19.026Z,28.50
2018-11-07T08:19:55.623Z,26.50
2018-11-07T08:22:20.724Z,25.97
2018-11-07T08:24:45.877Z,27.00
2018-11-07T08:27:10.968Z,26.67
2018-11-07T08:29:55.047Z,25.20
2018-11-07T08:32:32.762Z,25.20
2018-11-07T08:35:17.091Z,25.03
2018-11-07T08:37:43.180Z,23.63
2018-11-07T08:42:47.643Z,23.43
2018-11-07T08:45:13.571Z,22.67
2018-11-07T08:47:38.735Z,21.93
2018-11-07T08:50:03.951Z,23.10
2018-11-07T08:52:29.055Z,23.40
2018-11-07T08:54:54.232Z,21.57
2018-11-07T08:57:19.312Z,20.53
2018-11-07T08:59:44.465Z,20.07
2018-11-07T09:02:28.500Z,19.40
2018-11-07T09:04:53.606Z,20.17
2018-11-07T09:07:18.740Z,18.27
2018-11-07T09:09:44.038Z,19.33
2018-11-07T09:12:09.231Z,19.63
2018-11-07T09:14:34.317Z,20.90
2018-11-07T09:16:59.441Z,23.47
2018-11-07T09:19:43.523Z,21.63
2018-11-07T09:22:08.654Z,25.57
2018-11-07T09:24:33.880Z,23.03
2018-11-07T09:27:17.880Z,17.30
2018-11-07T09:29:42.968Z,16.50
2018-11-07T09:32:08.076Z,18.33
2018-11-07T09:34:33.232Z,40.23
2018-11-07T09:36:58.329Z,17.83
2018-11-07T09:39:23.445Z,25.90
2018-11-07T09:41:48.660Z,36.63
2018-11-07T09:44:13.838Z,24.27
2018-11-07T09:46:39.171Z,18.97
2018-11-07T09:49:04.301Z,16.00
2018-11-07T09:51:29.712Z,21.87
2018-11-07T09:53:54.993Z,18.80
2018-11-07T09:56:20.014Z,14.23
2018-11-07T09:58:45.157Z,13.73
2018-11-07T10:01:10.282Z,13.07
2018-11-07T10:03:35.547Z,13.63
2018-11-07T10:06:00.690Z,14.37
2018-11-07T10:08:27.485Z,15.03
2018-11-07T10:10:52.616Z,13.13
2018-11-07T10:13:36.658Z,12.40
2018-11-07T10:16:01.795Z,15.70
2018-11-07T10:18:26.972Z,12.47
2018-11-07T10:20:52.077Z,12.83
2018-11-07T10:23:17.226Z,11.77
2018-11-07T10:25:42.320Z,11.13
2018-11-07T10:28:07.842Z,11.70
2018-11-07T10:30:32.643Z,11.00
2018-11-07T10:32:57.730Z,11.23
2018-11-07T10:35:22.921Z,11.23
2018-11-07T10:38:07.160Z,11.13
2018-11-07T10:40:51.045Z,13.77
2018-11-07T10:43:16.182Z,15.57
2018-11-07T10:45:41.335Z,14.13
2018-11-07T10:48:06.750Z,11.57
2018-11-07T10:50:31.866Z,10.80
2018-11-07T10:52:56.986Z,16.80
2018-11-07T10:55:22.084Z,10.30
2018-11-07T10:57:47.294Z,11.00
2018-11-07T11:00:32.286Z,10.27
2018-11-07T11:03:16.148Z,9.67
2018-11-07T11:05:41.371Z,12.90
2018-11-07T11:08:06.650Z,29.80
2018-11-07T11:10:31.798Z,16.77
2018-11-07T11:12:56.891Z,10.63
2018-11-07T11:15:22.051Z,14.50
2018-11-07T11:17:47.178Z,12.40
2018-11-07T11:20:13.825Z,8.97
2018-11-07T11:22:38.944Z,17.00
2018-11-07T11:25:04.185Z,11.23
2018-11-07T11:27:29.396Z,8.77
2018-11-07T11:30:13.387Z,8.50
2018-11-07T11:32:38.823Z,13.47
2018-11-07T11:35:03.958Z,12.37
2018-11-07T11:37:28.962Z,11.50
2018-11-07T11:39:54.127Z,7.93
2018-11-07T11:42:19.245Z,8.80
2018-11-07T11:44:44.383Z,10.20
2018-11-07T11:47:09.490Z,9.63
2018-11-07T11:49:53.566Z,8.37
2018-11-07T11:55:13.711Z,8.00
2018-11-07T11:57:57.766Z,7.70
2018-11-07T12:00:41.838Z,7.30
2018-11-07T12:03:06.975Z,6.93
2018-11-07T12:05:51.066Z,6.90
2018-11-07T12:08:35.277Z,7.03
2018-11-07T12:11:00.360Z,6.03
2018-11-07T12:13:44.562Z,6.07
2018-11-07T12:16:09.769Z,6.47
2018-11-07T12:18:53.878Z,6.17
2018-11-07T12:21:19.118Z,6.22
2018-11-07T12:24:03.096Z,5.50
2018-11-07T12:26:28.238Z,5.87
2018-11-07T12:28:53.368Z,5.87
2018-11-07T12:31:18.497Z,5.95
2018-11-07T12:33:43.710Z,5.72
2018-11-07T12:36:27.855Z,5.08
2018-11-07T12:38:52.939Z,4.83
2018-11-07T12:44:13.367Z,5.53
2018-11-07T12:46:38.596Z,5.50
2018-11-07T12:49:22.683Z,5.42
2018-11-07T12:51:47.781Z,5.10
2018-11-07T12:54:12.846Z,5.10
2018-11-07T12:56:37.969Z,5.05
2018-11-07T12:59:03.084Z,5.08
2018-11-07T13:01:47.183Z,4.70
2018-11-07T13:04:12.268Z,4.90
2018-11-07T13:06:39.142Z,5.40
2018-11-07T13:09:23.963Z,5.87
2018-11-07T13:11:49.077Z,4.80
2018-11-07T13:14:33.184Z,5.22
2018-11-07T13:16:58.682Z,5.30
2018-11-07T13:19:42.772Z,5.35
2018-11-07T13:22:26.941Z,5.33
2018-11-07T13:24:51.924Z,5.50
2018-11-07T13:27:17.031Z,5.28
2018-11-07T13:29:42.119Z,6.15
2018-11-07T13:32:26.320Z,21.23
2018-11-07T13:34:51.450Z,14.13
2018-11-07T13:37:35.747Z,6.80
2018-11-07T13:40:31.898Z,5.37
2018-11-07T13:42:57.123Z,5.25
2018-11-07T13:45:41.150Z,5.17
2018-11-07T13:48:17.877Z,5.15
2018-11-07T13:50:42.987Z,4.60
2018-11-07T13:53:08.144Z,4.90
2018-11-07T13:55:33.146Z,4.53
2018-11-07T13:58:17.218Z,4.50
2018-11-07T14:03:18.507Z,4.97
2018-11-07T14:05:43.741Z,5.08
2018-11-07T14:08:08.721Z,4.87
2018-11-07T14:10:52.773Z,4.83
2018-11-07T14:13:17.905Z,3.77
2018-11-07T14:16:02.055Z,4.33
2018-11-07T14:18:27.036Z,4.70
2018-11-07T14:20:52.109Z,4.83
2018-11-07T14:23:17.169Z,4.85
2018-11-07T14:25:42.221Z,4.17
2018-11-07T14:28:08.120Z,5.00
2018-11-07T14:30:33.047Z,4.63
2018-11-07T14:33:09.559Z,4.80
2018-11-07T14:35:53.654Z,4.90
2018-11-07T14:38:18.775Z,4.43
2018-11-07T14:40:43.857Z,4.47
2018-11-07T14:43:08.996Z,4.60
2018-11-07T14:45:34.093Z,4.43
2018-11-07T14:47:59.175Z,4.60
2018-11-07T14:50:36.886Z,4.73
2018-11-07T14:53:01.995Z,4.33
2018-11-07T14:55:27.115Z,4.30
2018-11-07T14:57:52.197Z,3.90
2018-11-07T15:00:17.725Z,4.50
2018-11-07T15:02:43.712Z,4.40
2018-11-07T15:05:10.312Z,4.33
2018-11-07T15:07:35.488Z,5.37
2018-11-07T15:10:00.811Z,6.73
2018-11-07T15:12:25.931Z,5.13
2018-11-07T15:14:51.031Z,4.70
2018-11-07T15:17:16.291Z,4.53
2018-11-07T15:19:41.245Z,4.50
2018-11-07T15:22:06.726Z,4.57
2018-11-07T15:24:50.879Z,4.60
2018-11-07T15:27:34.973Z,5.50
2018-11-07T15:30:00.067Z,4.23
2018-11-07T15:32:25.184Z,4.90
2018-11-07T15:35:09.733Z,4.60
2018-11-07T15:37:34.809Z,4.43
2018-11-07T15:39:59.939Z,4.50
2018-11-07T15:42:25.045Z,4.50
2018-11-07T15:45:02.861Z,4.80
2018-11-07T15:47:27.963Z,4.40
2018-11-07T15:50:11.812Z,4.70
2018-11-07T15:52:36.953Z,4.90
2018-11-07T15:55:02.023Z,5.30
2018-11-07T15:57:27.123Z,5.67
2018-11-07T15:59:52.272Z,7.57
2018-11-07T16:02:17.348Z,6.23
2018-11-07T16:04:42.437Z,7.00
2018-11-07T16:07:07.531Z,7.20
2018-11-07T16:09:32.668Z,7.43
2018-11-07T16:11:57.773Z,8.17
2018-11-07T16:14:22.917Z,10.40
2018-11-07T16:16:48.014Z,9.23
2018-11-07T16:19:13.129Z,8.87
2018-11-07T16:21:38.238Z,8.33
2018-11-07T16:24:03.469Z,7.90
2018-11-07T16:26:28.562Z,8.13
2018-11-07T16:28:53.724Z,7.77
2018-11-07T16:31:18.852Z,7.80
2018-11-07T16:34:02.902Z,7.50
2018-11-07T16:36:28.031Z,7.70
2018-11-07T16:38:53.143Z,8.00
2018-11-07T16:41:18.454Z,8.70
2018-11-07T16:43:43.385Z,9.97
2018-11-07T16:46:08.524Z,10.47
2018-11-07T16:48:33.741Z,11.40
2018-11-07T16:50:58.810Z,12.47
2018-11-07T16:53:24.047Z,15.00
2018-11-07T16:55:49.141Z,14.30
2018-11-07T16:58:14.251Z,13.60
2018-11-07T17:00:39.398Z,12.77
2018-11-07T17:03:04.523Z,12.53
2018-11-07T17:05:29.660Z,11.40
2018-11-07T17:07:54.958Z,11.57
2018-11-07T17:10:20.084Z,11.13
2018-11-07T17:12:45.253Z,10.90
2018-11-07T17:15:10.317Z,10.20
2018-11-07T17:17:54.436Z,11.10
2018-11-07T17:20:19.575Z,12.27
2018-11-07T17:22:45.074Z,11.97
2018-11-07T17:25:12.432Z,11.63
2018-11-07T17:27:56.518Z,12.70
2018-11-07T17:30:21.648Z,12.87
2018-11-07T17:32:46.780Z,11.80
2018-11-07T17:35:30.859Z,12.93
2018-11-07T17:37:56.002Z,12.83
2018-11-07T17:40:22.711Z,12.87
2018-11-07T17:42:48.090Z,11.40
2018-11-07T17:45:32.787Z,11.77
2018-11-07T17:47:57.947Z,12.83
2018-11-07T17:50:23.871Z,11.97
2018-11-07T17:53:07.928Z,12.03
2018-11-07T17:55:33.074Z,12.23
2018-11-07T17:57:58.364Z,12.77
2018-11-07T18:00:32.548Z,12.57
2018-11-07T18:03:16.671Z,12.10
2018-11-07T18:05:41.804Z,13.90
2018-11-07T18:08:06.913Z,13.63
2018-11-07T18:10:32.076Z,15.03
2018-11-07T18:12:57.205Z,13.07
2018-11-07T18:18:01.669Z,13.33
2018-11-07T18:20:26.773Z,15.10
2018-11-07T18:22:51.957Z,16.00
2018-11-07T18:25:17.799Z,16.00
2018-11-07T18:28:01.947Z,14.93
2018-11-07T18:30:27.080Z,13.10
2018-11-07T18:33:03.881Z,13.57
2018-11-07T18:35:29.029Z,14.10
2018-11-07T18:37:54.161Z,13.63
2018-11-07T18:40:20.448Z,14.97
2018-11-07T18:42:45.675Z,13.53
2018-11-07T18:45:11.749Z,14.10
2018-11-07T18:47:55.804Z,14.60
2018-11-07T18:50:21.304Z,14.37
2018-11-07T18:52:46.321Z,14.70
2018-11-07T18:55:12.758Z,14.43
2018-11-07T18:57:37.922Z,13.77
2018-11-07T19:00:03.033Z,15.00
2018-11-07T19:02:28.286Z,14.47
2018-11-07T19:04:53.507Z,13.77
2018-11-07T19:07:18.657Z,13.97
2018-11-07T19:09:43.821Z,13.47
2018-11-07T19:12:08.968Z,14.47
2018-11-07T19:14:34.121Z,13.43
2018-11-07T19:16:59.244Z,14.03
2018-11-07T19:19:24.404Z,13.70
2018-11-07T19:21:49.531Z,14.53
2018-11-07T19:24:14.670Z,14.87
2018-11-07T19:26:39.898Z,14.27
2018-11-07T19:29:04.989Z,15.10
2018-11-07T19:31:30.232Z,15.00
2018-11-07T19:36:31.807Z,16.27
2018-11-07T19:38:56.943Z,15.73
2018-11-07T19:41:22.071Z,17.67
2018-11-07T19:43:47.237Z,16.20
2018-11-07T19:46:12.415Z,16.43
2018-11-07T19:48:37.588Z,15.57
2018-11-07T19:51:02.727Z,15.77
2018-11-07T19:53:27.920Z,14.93
2018-11-07T19:55:53.054Z,14.93
2018-11-07T19:58:18.193Z,15.30
2018-11-07T20:03:19.675Z,15.10
2018-11-07T20:05:44.868Z,14.13
2018-11-07T20:08:29.015Z,13.93
2018-11-07T20:10:54.170Z,14.50
2018-11-07T20:13:38.276Z,14.90
2018-11-07T20:16:03.408Z,14.37
2018-11-07T20:18:28.545Z,14.63
2018-11-07T20:20:53.692Z,14.87
2018-11-07T20:23:18.939Z,14.30
2018-11-07T20:26:02.926Z,14.83
2018-11-07T20:28:28.104Z,14.00
2018-11-07T20:30:53.395Z,14.50
2018-11-07T20:33:18.531Z,15.57
2018-11-07T20:35:43.826Z,15.43
2018-11-07T20:38:08.847Z,13.83
2018-11-07T20:40:34.014Z,15.37
2018-11-07T20:42:59.150Z,14.33
2018-11-07T20:45:24.305Z,15.57
2018-11-07T20:47:49.451Z,14.90
2018-11-07T20:50:16.047Z,14.13
2018-11-07T20:52:41.765Z,14.53
2018-11-07T20:55:07.021Z,14.57
2018-11-07T20:57:32.135Z,14.53
2018-11-07T21:02:52.731Z,16.73
2018-11-07T21:05:17.879Z,14.73
2018-11-07T21:12:56.187Z,19.33
2018-11-07T21:15:21.906Z,17.67
2018-11-07T21:17:47.320Z,16.13
2018-11-07T21:20:12.454Z,16.73
2018-11-07T21:22:37.622Z,21.17
2018-11-07T21:25:02.741Z,21.70
2018-11-07T21:27:27.883Z,20.47
2018-11-07T21:29:53.001Z,19.70
2018-11-07T21:32:18.206Z,18.43
2018-11-07T21:34:43.399Z,18.07
2018-11-07T21:37:27.501Z,16.07
2018-11-07T21:40:11.878Z,15.90
2018-11-07T21:42:37.075Z,15.83
2018-11-07T21:45:02.325Z,14.90
2018-11-07T21:47:27.448Z,15.00
2018-11-07T21:49:52.659Z,15.77
2018-11-07T21:52:36.822Z,15.07
2018-11-07T21:55:01.950Z,15.40
2018-11-07T21:57:27.161Z,14.40
2018-11-07T21:59:52.299Z,14.87
2018-11-07T22:02:17.452Z,13.73
2018-11-07T22:04:42.548Z,15.20
2018-11-07T22:07:26.770Z,14.90
2018-11-07T22:09:51.908Z,14.63
2018-11-07T22:12:17.089Z,14.07
2018-11-07T22:14:42.466Z,14.50
2018-11-07T22:17:07.519Z,12.53
2018-11-07T22:19:32.599Z,12.57
2018-11-07T22:21:57.720Z,13.67
2018-11-07T22:24:22.912Z,13.43
2018-11-07T22:26:47.961Z,13.80
2018-11-07T22:29:13.147Z,14.67
2018-11-07T22:34:33.781Z,14.57
2018-11-07T22:36:58.992Z,13.80
2018-11-07T22:39:24.111Z,14.00
2018-11-07T22:41:49.255Z,14.00
2018-11-07T22:44:33.338Z,13.83
2018-11-07T22:47:17.413Z,15.27
2018-11-07T22:49:42.498Z,14.43
2018-11-07T22:52:07.819Z,15.37
2018-11-07T22:54:32.949Z,15.40
2018-11-07T22:56:58.055Z,15.37
2018-11-07T22:59:23.176Z,13.83
2018-11-07T23:01:48.283Z,15.13
2018-11-07T23:04:13.404Z,13.10
2018-11-07T23:06:39.247Z,13.43
2018-11-07T23:09:05.240Z,14.77
2018-11-07T23:11:30.510Z,12.53
2018-11-07T23:13:55.860Z,12.63
2018-11-07T23:16:20.936Z,12.33
2018-11-07T23:18:46.060Z,12.53
2018-11-07T23:21:11.145Z,13.67
2018-11-07T23:23:36.308Z,13.97
2018-11-07T23:26:01.407Z,12.50
2018-11-07T23:28:26.524Z,11.83
2018-11-07T23:30:51.652Z,15.23
2018-11-07T23:33:16.770Z,15.23
2018-11-07T23:35:41.896Z,14.00
2018-11-07T23:38:07.012Z,14.37
2018-11-07T23:40:32.195Z,14.30
2018-11-07T23:42:57.305Z,14.27
2018-11-07T23:45:22.472Z,13.53
2018-11-07T23:47:50.111Z,13.77
2018-11-07T23:50:15.248Z,13.97
2018-11-07T23:52:59.093Z,15.17
2018-11-07T23:55:24.799Z,14.17
2018-11-07T23:57:50.718Z,13.87
